ADDS METAR Data INFO
IDs: Format: Raw Decoded Include TAF

Data at: 1713 UTC 23 Oct 2017

KGVE 231655Z AUTO 12004KT 10SM OVC035 23/16 A3007 RMK AO1 T02250162
KGVE 231635Z AUTO 16007KT 10SM SCT033 OVC039 22/16 A3009 RMK AO1 T02220160
KGVE 231615Z AUTO 13004KT 10SM BKN041 BKN065 23/16 A3011 RMK AO1 T02300162
KGVE 231555Z AUTO 15006KT 10SM SCT065 22/16 A3012 RMK AO1 T02210155
KGVE 231535Z AUTO 19003KT 10SM SCT025 BKN065 21/17 A3013 RMK AO1 T02050165
KGVE 231515Z AUTO 00000KT 10SM CLR 20/17 A3015 RMK AO1 T01960166
KGVE 231455Z AUTO 06003KT 10SM CLR 19/17 A3015 RMK AO1 T01860169
KGVE 231435Z AUTO 00000KT 10SM SCT004 17/16 A3016 RMK AO1 T01740163
KGVE 231415Z AUTO 00000KT 10SM OVC004 16/16 A3018 RMK AO1 T01630163
KGVE 231355Z AUTO 00000KT 3/4SM BR OVC002 16/16 A3019 RMK AO1 T01550155
KGVE 231335Z AUTO 00000KT 1/4SM FG OVC002 15/15 A3019 RMK AO1 T01490149
KGVE 231315Z AUTO 00000KT 1/4SM FG OVC002 15/15 A3020 RMK AO1 T01450145
KGVE 231255Z AUTO 00000KT M1/4SM FG OVC002 14/14 A3021 RMK AO1 T01430143
KGVE 231235Z AUTO 00000KT M1/4SM FG OVC002 14/14 A3021 RMK AO1 T01400140
KGVE 231215Z AUTO 00000KT M1/4SM FG OVC002 14/14 A3022 RMK AO1 T01370137
KGVE 231155Z AUTO 1/4SM FG OVC002 13/13 A3022 RMK AO1 T01340134 10134 20106
KGVE 231135Z AUTO 00000KT 3/4SM BR OVC002 13/13 A3022 RMK AO1 T01320132
KGVE 231115Z AUTO 00000KT 10SM OVC002 13/13 A3022 RMK AO1 T01310131
KGVE 231055Z AUTO 00000KT 10SM OVC004 13/13 A3022 RMK AO1 T01300130
KGVE 231035Z AUTO 00000KT 10SM OVC006 13/13 A3022 RMK AO1 T01290129
KGVE 231015Z AUTO 00000KT 10SM OVC008 13/13 A3023 RMK AO1 T01260126
KGVE 230955Z AUTO 00000KT 10SM BKN008 BKN030 OVC055 13/13 A3023 RMK AO1 T01270127
KGVE 230935Z AUTO 00000KT 10SM BKN008 OVC055 13/13 A3023 RMK AO1 T01250125
KGVE 230915Z AUTO 00000KT 10SM OVC008 12/12 A3024 RMK AO1 T01240124
KGVE 230855Z AUTO 00000KT 10SM BKN010 OVC026 12/12 A3024 RMK AO1 T01210121
KGVE 230835Z AUTO 00000KT 10SM BKN010 OVC026 12/12 A3024 RMK AO1 T01210121
KGVE 230815Z AUTO 00000KT 10SM SCT012 BKN028 OVC055 12/12 A3024 RMK AO1 T01180118
KGVE 230755Z AUTO 00000KT 10SM SCT012 OVC029 12/12 A3025 RMK AO1 T01170117
KGVE 230735Z AUTO 00000KT 10SM SCT012 BKN031 OVC050 12/12 A3026 RMK AO1 T01150115
KGVE 230715Z AUTO 00000KT 7SM BKN012 OVC050 11/11 A3026 RMK AO1 T01110111
KGVE 230655Z AUTO 00000KT 10SM SCT012 OVC050 11/11 A3026 RMK AO1 T01110111
KGVE 230635Z AUTO 00000KT 10SM BKN050 11/11 A3027 RMK AO1 T01080108
KGVE 230615Z AUTO 00000KT 10SM CLR 11/11 A3027 RMK AO1 T01060106
KGVE 230555Z AUTO 00000KT 10SM CLR 11/11 A3027 RMK AO1 T01060106 10156 20105
KGVE 230535Z AUTO 00000KT 7SM CLR 11/11 A3027 RMK AO1 T01070107
KGVE 230515Z AUTO 00000KT 4SM BR CLR 11/11 A3028 RMK AO1 T01100110
KGVE 230455Z AUTO 00000KT 10SM CLR 11/11 A3028 RMK AO1 T01110111 402480074
KGVE 230435Z AUTO 00000KT 7SM CLR 12/12 A3029 RMK AO1 T01150115
KGVE 230415Z AUTO 00000KT 10SM CLR 12/12 A3029 RMK AO1 T01160116
KGVE 230355Z AUTO 00000KT 10SM CLR 12/12 A3029 RMK AO1 T01170117
KGVE 230335Z AUTO 00000KT 10SM CLR 13/13 A3030 RMK AO1 T01250125
KGVE 230315Z AUTO 00000KT 10SM CLR 12/12 A3030 RMK AO1 T01240124
KGVE 230255Z AUTO 00000KT 10SM CLR 13/13 A3030 RMK AO1 T01280128
KGVE 230235Z AUTO 00000KT 7SM CLR 13/13 A3030 RMK AO1 T01310131
KGVE 230215Z AUTO 00000KT 10SM CLR 13/13 A3031 RMK AO1 T01340134
KGVE 230155Z AUTO 00000KT 10SM CLR 14/14 A3031 RMK AO1 T01410138
KGVE 230135Z AUTO 00000KT 10SM CLR 14/14 A3030 RMK AO1 T01380135
KGVE 230115Z AUTO 00000KT 10SM CLR 15/14 A3031 RMK AO1 T01450140
KGVE 230055Z AUTO 00000KT 10SM CLR 15/14 A3031 RMK AO1 T01460141
KGVE 230035Z AUTO 00000KT 10SM CLR 15/15 A3031 RMK AO1 T01490145
KGVE 230015Z AUTO 00000KT 10SM CLR 16/15 A3031 RMK AO1 T01550145
KGVE 222355Z AUTO 00000KT 10SM CLR 16/15 A3031 RMK AO1 T01600145 10248 20159
KGVE 222335Z AUTO 00000KT 10SM CLR 16/15 A3030 RMK AO1 T01610145
KGVE 222315Z AUTO 00000KT 10SM CLR 17/15 A3030 RMK AO1 T01700146
KGVE 222255Z AUTO 00000KT 10SM SCT047 18/15 A3029 RMK AO1 T01780147
KGVE 222235Z AUTO 00000KT 10SM SCT047 19/15 A3028 RMK AO1 T01860146
KGVE 222215Z AUTO 00000KT 10SM CLR 20/15 A3028 RMK AO1 T02020146
KGVE 222155Z AUTO 00000KT 10SM CLR 22/14 A3028 RMK AO1 T02160142
KGVE 222135Z AUTO 00000KT 10SM CLR 22/14 A3028 RMK AO1 T02240141
KGVE 222115Z AUTO 14003KT 10SM SCT047 23/14 A3028 RMK AO1 T02330143
KGVE 222055Z AUTO 15004KT 10SM BKN047 24/14 A3028 RMK AO1 T02400142
KGVE 222035Z AUTO 13004KT 10SM SCT047 24/14 A3028 RMK AO1 T02420136
KGVE 222015Z AUTO 19007KT 10SM CLR 24/13 A3029 RMK AO1 T02430133
KGVE 221955Z AUTO 17003KT 10SM CLR 25/14 A3029 RMK AO1 T02480135
KGVE 221935Z AUTO 19003KT 10SM CLR 24/13 A3029 RMK AO1 T02440130
KGVE 221915Z AUTO 15006KT 10SM CLR 24/13 A3029 RMK AO1 T02440130
KGVE 221855Z AUTO 22003KT 10SM CLR 25/13 A3030 RMK AO1 T02460130
KGVE 221835Z AUTO 19005KT 10SM CLR 25/13 A3030 RMK AO1 T02450129
KGVE 221815Z AUTO 21008G14KT 10SM CLR 24/13 A3030 RMK AO1 T02430128
KGVE 221755Z AUTO 16005KT 10SM CLR 25/14 A3032 RMK AO1 T02450137 10245 20076
KGVE 221735Z AUTO 17005KT 10SM CLR 24/14 A3033 RMK AO1 T02410135
KGVE 221715Z AUTO 21004KT 10SM CLR 24/14 A3034 RMK AO1 T02390135
KGVE 221655Z AUTO 18007KT 10SM CLR 24/14 A3035 RMK AO1 T02360137
KGVE 221635Z AUTO 20003KT 10SM CLR 23/15 A3036 RMK AO1 T02280145
KGVE 221615Z AUTO 00000KT 10SM CLR 22/15 A3036 RMK AO1 T02170145
KGVE 221555Z AUTO 00000KT 10SM CLR 21/14 A3036 RMK AO1 T02110143
KGVE 221535Z AUTO 00000KT 10SM CLR 20/14 A3037 RMK AO1 T01990142
KGVE 221515Z AUTO 00000KT 10SM CLR 19/14 A3037 RMK AO1 T01930140
KGVE 221455Z AUTO 00000KT 10SM CLR 19/14 A3038 RMK AO1 T01850140
KGVE 221435Z AUTO 00000KT 10SM CLR 18/14 A3038 RMK AO1 T01760137
KGVE 221415Z AUTO 00000KT 10SM CLR 16/13 A3038 RMK AO1 T01620131
KGVE 221355Z AUTO 00000KT 10SM CLR 15/13 A3038 RMK AO1 T01510127
KGVE 221335Z AUTO 00000KT 10SM CLR 14/13 A3039 RMK AO1 T01390125
KGVE 221315Z AUTO 00000KT 10SM CLR 12/12 A3038 RMK AO1 T01240117
KGVE 221255Z AUTO 00000KT 10SM CLR 11/10 A3038 RMK AO1 T01070104
KGVE 221235Z AUTO 00000KT 10SM CLR 09/09 A3038 RMK AO1 T00920092
KGVE 221215Z AUTO 00000KT 10SM CLR 08/08 A3038 RMK AO1 T00800080
KGVE 221155Z AUTO 00000KT 7SM CLR 08/08 A3037 RMK AO1 T00760076 10102 20074
KGVE 221135Z AUTO 00000KT 10SM CLR 08/08 A3037 RMK AO1 T00760076
KGVE 221115Z AUTO 00000KT 10SM CLR 08/08 A3036 RMK AO1 T00760076
KGVE 221055Z AUTO 00000KT 7SM CLR 08/08 A3036 RMK AO1 T00780078
KGVE 221035Z AUTO 00000KT 10SM CLR 08/08 A3036 RMK AO1 T00820082
KGVE 221015Z AUTO 00000KT 7SM CLR 08/08 A3036 RMK AO1 T00820082
KGVE 220955Z AUTO 00000KT 5SM BR CLR 08/08 A3036 RMK AO1 T00830083
KGVE 220935Z AUTO 00000KT 10SM CLR 09/09 A3035 RMK AO1 T00860086
KGVE 220915Z AUTO 00000KT 5SM BR CLR 09/09 A3035 RMK AO1 T00870087
KGVE 220855Z AUTO 00000KT 7SM CLR 09/09 A3034 RMK AO1 T00880088
KGVE 220835Z AUTO 00000KT 10SM CLR 09/09 A3033 RMK AO1 T00910091
KGVE 220815Z AUTO 00000KT 10SM CLR 09/09 A3033 RMK AO1 T00920092
KGVE 220755Z AUTO 00000KT 10SM CLR 09/09 A3033 RMK AO1 T00920092
KGVE 220735Z AUTO 00000KT 10SM CLR 10/10 A3033 RMK AO1 T00970097
KGVE 220715Z AUTO 00000KT 10SM CLR 10/10 A3034 RMK AO1 T00970097
KGVE 220655Z AUTO 00000KT 10SM CLR 09/09 A3034 RMK AO1 T00940094
KGVE 220635Z AUTO 00000KT 10SM CLR 10/10 A3034 RMK AO1 T01000099
KGVE 220615Z AUTO 00000KT 10SM CLR 10/10 A3035 RMK AO1 T00970096
KGVE 220555Z AUTO 00000KT 10SM CLR 10/10 A3034 RMK AO1 T01000099 10150 20100
KGVE 220535Z AUTO 00000KT 10SM CLR 10/10 A3035 RMK AO1 T01020101
KGVE 220515Z AUTO 00000KT 10SM CLR 11/10 A3034 RMK AO1 T01070104